Time;durP1;ratioP1;P1;durP2;ratioP2;P2;SDS_P1;SDS_P2;PMS_P1;PMS_P2;Temp;Humidity;BMP_temperature;BMP_pressure;BME280_temperature;BME280_humidity;BME280_pressure;Samples;Min_cycle;Max_cycle;Signal;HPM_P1;HPM_P2
2023/03/18 00:01:02;;;;;;;9.20;6.13;;;6.80;95.70;;;;;;5025924;28;20434;-54
2023/03/18 00:03:30;;;;;;;16.17;6.70;;;6.80;95.90;;;;;;5024228;28;20747;-54
2023/03/18 00:06:11;;;;;;;13.33;5.97;;;6.80;95.80;;;;;;5023027;28;20430;-54
2023/03/18 00:08:38;;;;;;;15.00;7.03;;;6.80;96.10;;;;;;5026910;28;20525;-54
2023/03/18 00:11:04;;;;;;;12.87;8.00;;;6.70;96.10;;;;;;5029032;28;20493;-54
2023/03/18 00:13:34;;;;;;;13.80;7.47;;;6.70;96.20;;;;;;5022672;28;20512;-53
2023/03/18 00:16:00;;;;;;;14.43;7.80;;;6.70;96.70;;;;;;5028814;28;21065;-53
2023/03/18 00:18:27;;;;;;;12.20;7.50;;;6.60;98.00;;;;;;5025947;28;20453;-54
2023/03/18 00:20:52;;;;;;;13.50;7.47;;;6.60;98.80;;;;;;5024246;28;20501;-53
2023/03/18 00:23:20;;;;;;;14.17;7.03;;;6.60;98.60;;;;;;5023453;28;20992;-52
2023/03/18 00:25:47;;;;;;;13.40;7.07;;;6.60;99.10;;;;;;5020031;28;20235;-53
2023/03/18 00:28:13;;;;;;;11.53;5.67;;;6.60;99.40;;;;;;5028409;28;20442;-55
2023/03/18 00:30:40;;;;;;;13.23;6.03;;;6.70;98.90;;;;;;5024629;28;20441;-55
2023/03/18 00:33:08;;;;;;;11.80;5.70;;;6.70;98.60;;;;;;5026025;28;20465;-56
2023/03/18 00:35:35;;;;;;;7.70;4.80;;;6.70;98.80;;;;;;5025337;28;20807;-56
2023/03/18 00:38:02;;;;;;;10.93;4.73;;;6.70;98.70;;;;;;5020146;28;20434;-55
2023/03/18 00:40:41;;;;;;;9.00;5.60;;;6.70;98.40;;;;;;5027104;28;20528;-55
2023/03/18 00:43:09;;;;;;;7.53;6.40;;;6.80;97.90;;;;;;5019932;28;20492;-53
2023/03/18 00:45:39;;;;;;;12.10;6.43;;;6.80;98.10;;;;;;5026881;28;20439;-53
2023/03/18 00:48:06;;;;;;;15.93;8.87;;;6.70;97.20;;;;;;5025783;28;20434;-55
2023/03/18 00:50:33;;;;;;;17.13;9.60;;;6.70;96.90;;;;;;5028882;28;20438;-55
2023/03/18 00:52:59;;;;;;;15.90;9.73;;;6.70;96.40;;;;;;5018840;28;20489;-56
2023/03/18 00:55:26;;;;;;;24.00;13.07;;;6.60;97.00;;;;;;5028160;28;20442;-54
2023/03/18 00:57:52;;;;;;;28.53;16.07;;;6.60;97.70;;;;;;5020980;28;20438;-54
2023/03/18 01:00:19;;;;;;;28.40;15.80;;;6.50;98.20;;;;;;5025066;28;20443;-54
2023/03/18 01:02:47;;;;;;;29.53;17.33;;;6.50;98.30;;;;;;5025305;28;20577;-55
2023/03/18 01:05:13;;;;;;;24.80;16.17;;;6.50;98.90;;;;;;5025757;28;20548;-55
2023/03/18 01:07:40;;;;;;;25.13;15.47;;;6.40;99.10;;;;;;5021334;28;20442;-55
2023/03/18 01:10:07;;;;;;;27.43;15.70;;;6.40;99.60;;;;;;5028222;28;20452;-54
2023/03/18 01:12:32;;;;;;;25.97;14.67;;;6.40;99.90;;;;;;5030327;28;20454;-55
2023/03/18 01:14:58;;;;;;;26.47;14.57;;;6.40;99.90;;;;;;5032586;28;20421;-53
2023/03/18 01:17:24;;;;;;;24.73;14.80;;;6.40;99.90;;;;;;5026506;28;20553;-53
2023/03/18 01:19:50;;;;;;;23.80;13.50;;;6.40;99.90;;;;;;5030486;28;20184;-52
2023/03/18 01:22:16;;;;;;;21.23;13.73;;;6.40;99.90;;;;;;5023850;28;20708;-53
2023/03/18 01:24:42;;;;;;;22.20;14.13;;;6.40;99.90;;;;;;5029444;28;20439;-54
2023/03/18 01:27:07;;;;;;;22.47;14.03;;;6.30;99.70;;;;;;5027980;28;20434;-54
2023/03/18 01:29:34;;;;;;;26.40;14.40;;;6.40;99.90;;;;;;5031051;28;20176;-53
2023/03/18 01:32:00;;;;;;;18.27;12.03;;;6.40;99.90;;;;;;5025583;28;20199;-53
2023/03/18 01:34:26;;;;;;;21.87;13.53;;;6.30;99.90;;;;;;5029245;28;20441;-54
2023/03/18 01:36:52;;;;;;;23.50;14.20;;;6.30;99.90;;;;;;5026977;28;20426;-53
2023/03/18 01:39:18;;;;;;;21.90;13.20;;;6.30;99.90;;;;;;5029820;28;20180;-55
2023/03/18 01:41:44;;;;;;;21.53;13.20;;;6.30;99.90;;;;;;5024768;28;20902;-54
2023/03/18 01:44:14;;;;;;;26.67;14.10;;;6.30;99.90;;;;;;5029193;28;20258;-56
2023/03/18 01:46:43;;;;;;;24.13;14.03;;;6.30;99.90;;;;;;5029551;28;20418;-53
2023/03/18 01:49:49;;;;;;;27.50;14.70;;;6.30;99.90;;;;;;5016624;28;20445;-54
2023/03/18 01:52:24;;;;;;;22.90;12.70;;;6.20;99.90;;;;;;5022896;28;21006;-56
2023/03/18 01:54:59;;;;;;;21.60;12.23;;;6.20;99.90;;;;;;5021522;28;20447;-53
2023/03/18 01:57:26;;;;;;;27.03;14.00;;;6.20;99.90;;;;;;5026412;28;20460;-54
2023/03/18 01:59:54;;;;;;;20.17;12.60;;;6.20;99.90;;;;;;5027467;28;20443;-54
2023/03/18 02:02:20;;;;;;;19.67;11.93;;;6.10;99.90;;;;;;5027183;28;21109;-54
2023/03/18 02:04:56;;;;;;;18.80;12.13;;;6.10;99.90;;;;;;5029723;28;20430;-53
2023/03/18 02:07:29;;;;;;;20.13;12.40;;;6.10;99.90;;;;;;5025078;28;20426;-54
2023/03/18 02:09:57;;;;;;;19.80;12.20;;;6.10;99.90;;;;;;5030121;28;20418;-54
2023/03/18 02:12:28;;;;;;;20.53;11.20;;;6.00;99.90;;;;;;5018930;28;20450;-55
2023/03/18 02:14:55;;;;;;;17.23;10.40;;;6.00;99.90;;;;;;5030182;28;20458;-54
2023/03/18 02:17:26;;;;;;;20.97;10.77;;;6.00;99.90;;;;;;5025380;28;20434;-53
2023/03/18 02:20:13;;;;;;;21.80;12.57;;;6.00;99.90;;;;;;5021883;28;20419;-56
2023/03/18 02:22:49;;;;;;;20.87;12.63;;;6.00;99.90;;;;;;5028388;28;20462;-53
2023/03/18 02:25:40;;;;;;;20.70;11.13;;;6.00;99.90;;;;;;5027995;28;20522;-55
2023/03/18 02:28:17;;;;;;;18.77;10.63;;;6.00;99.90;;;;;;5020410;28;21444;-55
2023/03/18 02:30:47;;;;;;;17.37;10.93;;;6.00;99.90;;;;;;5030962;28;20438;-53
2023/03/18 02:33:16;;;;;;;16.70;10.83;;;5.90;99.90;;;;;;5029885;28;20450;-54
2023/03/18 02:35:45;;;;;;;20.27;11.37;;;5.90;99.90;;;;;;5026785;28;20442;-55
2023/03/18 02:38:10;;;;;;;18.10;11.07;;;5.90;99.90;;;;;;5026248;28;20449;-53
2023/03/18 02:40:39;;;;;;;20.00;10.40;;;5.80;99.90;;;;;;5026121;28;20911;-53
2023/03/18 02:43:26;;;;;;;17.83;10.33;;;5.80;99.90;;;;;;5024517;28;20208;-53
2023/03/18 02:46:29;;;;;;;17.40;10.53;;;5.80;99.90;;;;;;5018981;28;20426;-53
2023/03/18 02:48:56;;;;;;;16.93;9.70;;;5.70;99.90;;;;;;5021220;28;20808;-55
2023/03/18 02:51:23;;;;;;;15.10;8.47;;;5.70;99.90;;;;;;5025992;28;20434;-57
2023/03/18 02:53:49;;;;;;;15.97;8.97;;;5.70;99.90;;;;;;5027452;28;20476;-56
2023/03/18 02:56:15;;;;;;;16.97;8.50;;;5.70;99.90;;;;;;5019612;28;20441;-56
2023/03/18 02:58:41;;;;;;;15.00;8.17;;;5.60;99.90;;;;;;5023746;28;20426;-56
2023/03/18 03:01:07;;;;;;;16.50;9.37;;;5.60;99.90;;;;;;5024216;28;20485;-55
2023/03/18 03:03:34;;;;;;;13.40;8.57;;;5.60;99.90;;;;;;5029262;28;20239;-55
2023/03/18 03:06:00;;;;;;;16.00;9.13;;;5.60;99.90;;;;;;5026865;28;20442;-54
2023/03/18 03:08:26;;;;;;;11.07;7.43;;;5.50;99.90;;;;;;5018456;28;20475;-54
2023/03/18 03:10:52;;;;;;;10.40;7.00;;;5.50;99.90;;;;;;5025226;28;20465;-55
2023/03/18 03:13:19;;;;;;;10.70;8.00;;;5.50;99.90;;;;;;5026996;28;20524;-53
2023/03/18 03:15:45;;;;;;;14.13;7.77;;;5.50;99.90;;;;;;5027033;28;20272;-54
2023/03/18 03:18:11;;;;;;;17.33;7.80;;;5.50;99.90;;;;;;5021360;28;20514;-54
2023/03/18 03:20:37;;;;;;;11.30;7.30;;;5.40;99.90;;;;;;5027386;28;20542;-55
2023/03/18 03:23:08;;;;;;;12.13;7.60;;;5.40;99.90;;;;;;5025100;28;20524;-53
2023/03/18 03:25:35;;;;;;;11.60;7.70;;;5.40;99.90;;;;;;5028635;28;20427;-55
2023/03/18 03:28:01;;;;;;;9.87;6.47;;;5.50;99.90;;;;;;5029765;28;20441;-53
2023/03/18 03:30:27;;;;;;;12.07;7.03;;;5.40;99.90;;;;;;5024595;28;20434;-55
2023/03/18 03:32:53;;;;;;;12.50;7.00;;;5.40;99.90;;;;;;5021566;28;20920;-55
2023/03/18 03:35:20;;;;;;;14.20;7.73;;;5.30;99.90;;;;;;5027986;28;20183;-54
2023/03/18 03:37:45;;;;;;;11.90;7.70;;;5.30;99.90;;;;;;5023843;28;20184;-53
2023/03/18 03:40:14;;;;;;;12.87;7.20;;;5.30;99.90;;;;;;5024478;28;20427;-53
2023/03/18 03:42:40;;;;;;;17.27;11.97;;;5.20;99.90;;;;;;5025126;28;20207;-54
2023/03/18 03:45:06;;;;;;;13.60;9.23;;;5.30;99.90;;;;;;5024309;28;20457;-54
2023/03/18 03:47:32;;;;;;;17.90;10.10;;;5.30;99.90;;;;;;5026719;28;20237;-55
2023/03/18 03:49:58;;;;;;;18.33;9.30;;;5.20;99.90;;;;;;5029454;28;20431;-55
2023/03/18 03:52:24;;;;;;;14.37;8.80;;;5.20;99.90;;;;;;5022313;28;20207;-54
2023/03/18 03:54:50;;;;;;;15.67;8.40;;;5.20;99.90;;;;;;5025564;28;20188;-55
2023/03/18 03:57:17;;;;;;;13.70;8.23;;;5.20;99.90;;;;;;5023792;28;20427;-54
2023/03/18 03:59:42;;;;;;;17.03;8.73;;;5.20;99.90;;;;;;5027450;28;20862;-54
2023/03/18 04:02:08;;;;;;;13.30;7.97;;;5.10;99.90;;;;;;5026772;28;20484;-53
2023/03/18 04:04:34;;;;;;;14.60;7.77;;;5.10;99.90;;;;;;5022456;28;20184;-54
2023/03/18 04:07:02;;;;;;;13.60;8.00;;;5.10;99.90;;;;;;5023309;28;20172;-54
2023/03/18 04:09:28;;;;;;;13.80;8.33;;;5.00;99.90;;;;;;5026953;28;20988;-53
2023/03/18 04:11:53;;;;;;;22.40;8.30;;;5.10;99.90;;;;;;5019042;28;20454;-53
2023/03/18 04:14:19;;;;;;;11.70;7.43;;;5.00;99.90;;;;;;5028076;28;20438;-54
2023/03/18 04:16:44;;;;;;;11.83;7.23;;;5.00;99.90;;;;;;5024959;28;20184;-53
2023/03/18 04:19:10;;;;;;;12.70;7.67;;;5.00;99.90;;;;;;5018308;28;20997;-54
2023/03/18 04:21:36;;;;;;;13.77;7.30;;;4.90;99.90;;;;;;5022016;28;20192;-53
2023/03/18 04:24:02;;;;;;;9.70;6.90;;;4.90;99.90;;;;;;5020131;28;20824;-53
2023/03/18 04:26:29;;;;;;;12.97;7.30;;;4.90;99.90;;;;;;5025187;28;20636;-52
2023/03/18 04:28:56;;;;;;;13.40;7.93;;;4.90;99.90;;;;;;5026219;28;20433;-54
2023/03/18 04:31:22;;;;;;;13.17;6.83;;;4.80;99.90;;;;;;5024573;28;20456;-53
2023/03/18 04:33:47;;;;;;;13.10;7.87;;;4.80;99.90;;;;;;5027454;28;20954;-54
2023/03/18 04:36:13;;;;;;;11.30;6.57;;;4.80;99.90;;;;;;5024933;28;21135;-54
2023/03/18 04:38:39;;;;;;;9.70;6.10;;;4.80;99.90;;;;;;5022192;28;20587;-52
2023/03/18 04:41:05;;;;;;;10.07;5.47;;;4.70;99.90;;;;;;5023935;28;20178;-53
2023/03/18 04:43:31;;;;;;;9.10;5.87;;;4.70;99.90;;;;;;5029047;28;20486;-54
2023/03/18 04:45:56;;;;;;;13.47;7.33;;;4.70;99.90;;;;;;5029939;28;20446;-53
2023/03/18 04:48:22;;;;;;;11.00;7.40;;;4.60;99.90;;;;;;5030407;28;20263;-55
2023/03/18 04:50:48;;;;;;;9.87;6.57;;;4.60;99.90;;;;;;5026631;28;20172;-54
2023/03/18 04:53:14;;;;;;;10.93;6.87;;;4.60;99.90;;;;;;5026828;28;20291;-56
2023/03/18 04:55:40;;;;;;;10.93;6.53;;;4.50;99.90;;;;;;5029239;28;20218;-55
2023/03/18 04:58:05;;;;;;;8.73;6.40;;;4.50;99.90;;;;;;5026700;28;20469;-56
2023/03/18 05:00:31;;;;;;;15.10;7.30;;;4.50;99.90;;;;;;5029562;28;20187;-54
2023/03/18 05:02:57;;;;;;;14.63;6.20;;;4.50;99.90;;;;;;5030375;28;20204;-53
2023/03/18 05:05:22;;;;;;;10.60;5.83;;;4.40;99.90;;;;;;5027877;28;20639;-54
2023/03/18 05:07:48;;;;;;;11.20;6.67;;;4.40;99.90;;;;;;5025728;28;20714;-54
2023/03/18 05:10:14;;;;;;;12.70;7.63;;;4.40;99.90;;;;;;5028205;28;20179;-54
2023/03/18 05:12:40;;;;;;;13.70;7.87;;;4.30;99.90;;;;;;5028348;28;20290;-58
2023/03/18 05:15:07;;;;;;;14.83;7.83;;;4.30;99.90;;;;;;5027674;28;20462;-58
2023/03/18 05:17:34;;;;;;;16.73;7.30;;;4.20;99.90;;;;;;5028508;28;20496;-58
2023/03/18 05:19:59;;;;;;;11.97;6.40;;;4.20;99.90;;;;;;5026047;28;20438;-55
2023/03/18 05:22:25;;;;;;;12.07;6.80;;;4.20;99.90;;;;;;5029095;28;20512;-55
2023/03/18 05:24:51;;;;;;;12.07;6.63;;;4.20;99.90;;;;;;5025549;28;20283;-53
2023/03/18 05:27:17;;;;;;;11.30;6.67;;;4.20;99.90;;;;;;5026899;28;20575;-54
2023/03/18 05:29:43;;;;;;;11.83;6.90;;;4.20;99.90;;;;;;5029017;28;20184;-56
2023/03/18 05:32:11;;;;;;;12.57;8.57;;;4.20;99.90;;;;;;5028709;28;20456;-55
2023/03/18 05:34:38;;;;;;;13.47;7.70;;;4.20;99.90;;;;;;5031416;28;20445;-53
2023/03/18 05:37:05;;;;;;;10.60;6.57;;;4.10;99.90;;;;;;5026885;28;20529;-53
2023/03/18 05:39:32;;;;;;;12.60;7.87;;;4.10;99.90;;;;;;5026564;28;20446;-54
2023/03/18 05:41:58;;;;;;;12.43;6.10;;;4.00;99.90;;;;;;5026736;28;20469;-56
2023/03/18 05:44:24;;;;;;;11.90;6.70;;;4.00;99.90;;;;;;5029742;28;20504;-55
2023/03/18 05:46:51;;;;;;;8.13;5.90;;;4.00;99.90;;;;;;5021974;28;20427;-52
2023/03/18 05:49:18;;;;;;;10.00;6.80;;;3.90;99.90;;;;;;5028617;28;20458;-53
2023/03/18 05:51:43;;;;;;;10.27;6.17;;;3.90;99.90;;;;;;5027344;28;20515;-54
2023/03/18 05:54:09;;;;;;;10.63;6.57;;;3.90;99.90;;;;;;5024387;28;20434;-53
2023/03/18 05:56:35;;;;;;;8.57;6.10;;;3.90;99.90;;;;;;5020121;28;20684;-53
2023/03/18 05:59:02;;;;;;;11.53;7.27;;;3.90;99.90;;;;;;5008732;28;20188;-54
2023/03/18 06:01:29;;;;;;;10.93;8.43;;;3.90;99.90;;;;;;5008143;28;20434;-53
2023/03/18 06:03:55;;;;;;;9.23;6.07;;;3.90;99.90;;;;;;5016365;28;20527;-56
2023/03/18 06:06:21;;;;;;;13.10;6.47;;;3.90;99.90;;;;;;5033815;28;20836;-54
2023/03/18 06:08:47;;;;;;;9.93;6.60;;;3.90;99.90;;;;;;5027743;28;20187;-55
2023/03/18 06:11:13;;;;;;;9.50;5.40;;;3.90;99.90;;;;;;5030032;28;20377;-55
2023/03/18 06:13:38;;;;;;;10.50;6.27;;;3.80;99.90;;;;;;5030951;28;21107;-55
2023/03/18 06:16:05;;;;;;;9.83;6.33;;;3.80;99.90;;;;;;5031116;28;20674;-53
2023/03/18 06:18:32;;;;;;;5.90;5.00;;;3.90;99.90;;;;;;5028017;28;20183;-55
2023/03/18 06:20:58;;;;;;;10.47;5.83;;;3.80;99.90;;;;;;5028704;28;20438;-52
2023/03/18 06:23:23;;;;;;;11.30;5.40;;;3.80;99.90;;;;;;5029278;28;20466;-53
2023/03/18 06:25:49;;;;;;;8.27;5.73;;;3.80;99.90;;;;;;5024325;28;20525;-54
2023/03/18 06:28:15;;;;;;;8.73;5.77;;;3.80;99.90;;;;;;5027043;28;20802;-53
2023/03/18 06:30:40;;;;;;;7.97;5.90;;;3.90;99.90;;;;;;5029510;28;20430;-54
2023/03/18 06:33:08;;;;;;;8.53;5.77;;;3.90;99.90;;;;;;5019366;28;20221;-52
2023/03/18 06:35:34;;;;;;;8.80;5.97;;;4.00;99.90;;;;;;5027728;28;20176;-54
2023/03/18 06:38:00;;;;;;;11.80;6.27;;;4.00;99.90;;;;;;5027218;28;20953;-53
2023/03/18 06:40:25;;;;;;;12.63;6.30;;;4.00;99.90;;;;;;5023267;28;20180;-58
2023/03/18 06:42:51;;;;;;;13.20;7.27;;;4.00;99.90;;;;;;5025750;28;20470;-53
2023/03/18 06:45:17;;;;;;;12.60;6.33;;;4.10;99.90;;;;;;5022689;28;20612;-53
2023/03/18 06:47:43;;;;;;;8.67;5.87;;;4.10;99.90;;;;;;5027420;28;20181;-54
2023/03/18 06:50:10;;;;;;;11.97;5.70;;;4.20;99.90;;;;;;5027617;28;20652;-55
2023/03/18 06:52:37;;;;;;;11.40;6.33;;;4.30;99.90;;;;;;5028641;28;20458;-55
2023/03/18 06:55:05;;;;;;;10.67;6.00;;;4.40;99.90;;;;;;5028610;28;20435;-56
2023/03/18 06:57:31;;;;;;;9.43;6.60;;;4.50;99.90;;;;;;5025767;28;20426;-57
2023/03/18 06:59:57;;;;;;;9.90;6.10;;;4.60;99.90;;;;;;5026494;28;20411;-54
2023/03/18 07:02:24;;;;;;;9.07;6.13;;;4.60;99.90;;;;;;5022233;28;20823;-55
2023/03/18 07:04:50;;;;;;;8.07;5.90;;;4.70;99.90;;;;;;5008184;28;20204;-58
2023/03/18 07:07:15;;;;;;;9.20;6.00;;;4.80;99.90;;;;;;5018472;28;20437;-52
2023/03/18 07:09:43;;;;;;;15.80;5.10;;;4.80;99.90;;;;;;5019367;28;20435;-54
2023/03/18 07:12:12;;;;;;;8.10;5.90;;;4.90;99.90;;;;;;5023291;28;20238;-57
2023/03/18 07:14:38;;;;;;;9.20;6.03;;;4.90;99.90;;;;;;5013898;28;20435;-54
2023/03/18 07:17:04;;;;;;;7.80;5.63;;;5.00;99.90;;;;;;5022818;28;20595;-55
2023/03/18 07:19:31;;;;;;;7.40;5.10;;;5.00;99.90;;;;;;5027728;28;21185;-55
2023/03/18 07:21:56;;;;;;;7.50;5.10;;;5.10;99.90;;;;;;5023587;28;20195;-53
2023/03/18 07:24:22;;;;;;;8.97;4.60;;;5.10;99.90;;;;;;5017589;28;20439;-56
2023/03/18 07:26:49;;;;;;;6.07;4.10;;;5.20;99.90;;;;;;5015721;28;20208;-56
2023/03/18 07:29:15;;;;;;;8.00;3.80;;;5.30;99.90;;;;;;5020542;28;20183;-58
2023/03/18 07:31:42;;;;;;;6.40;4.20;;;5.40;99.90;;;;;;5024305;28;20432;-55
2023/03/18 07:34:08;;;;;;;6.80;4.10;;;5.40;99.90;;;;;;5026075;28;20818;-54
2023/03/18 07:36:35;;;;;;;8.90;4.27;;;5.50;99.90;;;;;;5017763;28;20430;-52
2023/03/18 07:39:02;;;;;;;6.77;4.03;;;5.60;99.90;;;;;;5021585;28;20534;-55
2023/03/18 07:41:27;;;;;;;5.43;3.53;;;5.70;99.90;;;;;;5022342;28;20568;-52
2023/03/18 07:43:54;;;;;;;6.10;4.60;;;5.80;99.50;;;;;;5021414;28;20916;-53
2023/03/18 07:46:20;;;;;;;4.03;3.50;;;5.90;99.30;;;;;;5023069;28;20183;-54
2023/03/18 07:48:46;;;;;;;9.00;4.93;;;6.00;99.50;;;;;;5012425;28;20496;-53
2023/03/18 07:51:14;;;;;;;6.90;4.10;;;6.10;99.00;;;;;;5016389;28;20453;-54
2023/03/18 07:53:40;;;;;;;10.70;3.87;;;6.20;99.10;;;;;;5013672;28;20469;-55
2023/03/18 07:56:07;;;;;;;7.27;4.77;;;6.30;98.70;;;;;;5018803;28;20484;-54
2023/03/18 07:58:33;;;;;;;6.40;3.70;;;6.40;96.60;;;;;;5028642;28;20429;-58
2023/03/18 08:00:59;;;;;;;7.70;4.13;;;6.50;96.20;;;;;;5019306;28;20461;-54
2023/03/18 08:03:25;;;;;;;7.67;4.33;;;6.70;95.20;;;;;;5019753;28;20871;-56
2023/03/18 08:05:51;;;;;;;12.47;5.47;;;6.80;93.40;;;;;;5018835;28;20509;-54
2023/03/18 08:08:17;;;;;;;13.20;5.33;;;6.80;91.70;;;;;;5022750;28;20418;-55
2023/03/18 08:10:42;;;;;;;8.60;4.97;;;7.00;91.50;;;;;;5021473;28;20438;-54
2023/03/18 08:13:08;;;;;;;6.70;4.40;;;7.10;90.20;;;;;;5023081;28;20470;-56
2023/03/18 08:15:34;;;;;;;7.10;3.47;;;7.20;87.90;;;;;;5023299;28;20195;-55
2023/03/18 08:18:00;;;;;;;5.03;2.90;;;7.30;86.40;;;;;;5012704;28;20184;-54
2023/03/18 08:20:25;;;;;;;6.63;3.60;;;7.50;81.30;;;;;;5016432;28;20184;-52
2023/03/18 08:22:52;;;;;;;6.83;4.00;;;7.60;78.50;;;;;;5014273;28;20826;-54
2023/03/18 08:25:18;;;;;;;5.23;3.10;;;7.70;76.20;;;;;;5019442;28;20674;-53
2023/03/18 08:27:43;;;;;;;7.33;3.67;;;7.80;75.20;;;;;;5027312;28;20726;-53
2023/03/18 08:30:10;;;;;;;6.50;3.93;;;7.90;74.70;;;;;;5029160;28;20222;-52
2023/03/18 08:32:36;;;;;;;11.10;4.37;;;8.10;75.30;;;;;;5027758;28;20200;-56
2023/03/18 08:35:02;;;;;;;5.73;4.10;;;8.20;76.40;;;;;;5023315;28;20874;-52
2023/03/18 08:37:28;;;;;;;9.43;3.93;;;8.30;75.70;;;;;;5027663;28;20211;-54
2023/03/18 08:39:53;;;;;;;7.53;3.53;;;8.40;74.70;;;;;;5028653;28;20191;-53
2023/03/18 08:42:19;;;;;;;11.50;3.80;;;8.50;73.70;;;;;;5022025;28;20208;-53
2023/03/18 08:44:45;;;;;;;6.07;4.40;;;8.60;73.10;;;;;;5028592;28;20466;-54
2023/03/18 08:47:11;;;;;;;4.27;3.70;;;8.70;73.00;;;;;;5021120;28;20481;-56
2023/03/18 08:49:37;;;;;;;6.40;3.60;;;8.80;72.60;;;;;;5021170;28;20183;-53
2023/03/18 08:52:03;;;;;;;5.00;3.60;;;8.90;72.00;;;;;;5020659;28;20232;-53
2023/03/18 08:54:29;;;;;;;4.57;3.47;;;9.10;71.80;;;;;;5021848;28;20457;-55
2023/03/18 08:56:55;;;;;;;7.77;4.50;;;9.20;71.70;;;;;;5019411;28;20450;-53
2023/03/18 08:59:21;;;;;;;9.40;4.00;;;9.40;71.50;;;;;;5022544;28;20424;-55
2023/03/18 09:01:49;;;;;;;9.70;3.87;;;9.50;71.30;;;;;;5023021;28;20952;-54
2023/03/18 09:04:15;;;;;;;7.43;3.80;;;9.70;69.70;;;;;;5025547;28;20196;-52
2023/03/18 09:06:41;;;;;;;6.00;3.37;;;9.90;69.90;;;;;;5027192;28;20434;-53
2023/03/18 09:09:07;;;;;;;5.27;3.17;;;10.10;68.40;;;;;;5027409;28;20849;-53
2023/03/18 09:11:33;;;;;;;4.97;2.90;;;10.30;67.00;;;;;;5026999;28;20357;-56
2023/03/18 09:13:59;;;;;;;5.10;3.33;;;10.50;66.20;;;;;;5022692;28;20434;-55
2023/03/18 09:16:25;;;;;;;2.90;2.30;;;10.70;65.00;;;;;;5027714;28;21506;-55
2023/03/18 09:18:50;;;;;;;5.87;2.90;;;10.90;62.90;;;;;;5027402;28;20450;-54
2023/03/18 09:21:17;;;;;;;7.23;3.37;;;11.10;61.00;;;;;;5025197;28;20175;-54
2023/03/18 09:23:43;;;;;;;9.70;3.40;;;11.20;58.60;;;;;;5022590;28;20223;-54
2023/03/18 09:26:08;;;;;;;10.73;3.30;;;11.40;58.10;;;;;;5026927;28;20955;-54
2023/03/18 09:28:34;;;;;;;8.20;3.53;;;11.60;57.90;;;;;;5027939;28;20427;-54
2023/03/18 09:31:00;;;;;;;8.33;4.03;;;11.80;57.50;;;;;;5023081;28;20267;-55
2023/03/18 09:33:26;;;;;;;9.10;3.13;;;11.90;57.00;;;;;;5025922;28;20218;-55
2023/03/18 09:35:52;;;;;;;5.37;2.77;;;12.10;57.00;;;;;;5029029;28;20195;-53
2023/03/18 09:38:19;;;;;;;6.67;3.90;;;12.40;56.80;;;;;;5031543;28;20216;-54
2023/03/18 09:41:07;;;;;;;3.80;3.00;;;12.50;54.80;;;;;;5031210;28;20434;-54
2023/03/18 09:43:47;;;;;;;5.30;3.23;;;12.70;53.10;;;;;;5025833;28;20974;-55
2023/03/18 09:46:51;;;;;;;4.30;3.00;;;12.80;50.40;;;;;;5030869;28;20543;-53
2023/03/18 09:49:47;;;;;;;4.43;2.57;;;13.00;48.70;;;;;;5030879;28;20473;-54
2023/03/18 09:52:22;;;;;;;5.43;2.90;;;13.20;48.40;;;;;;5023784;28;20454;-55
2023/03/18 09:54:53;;;;;;;14.00;4.10;;;13.40;47.90;;;;;;5029069;28;20434;-54
2023/03/18 09:57:23;;;;;;;4.30;2.93;;;13.60;48.70;;;;;;5029227;28;20419;-53
2023/03/18 09:59:57;;;;;;;7.80;2.83;;;13.80;48.80;;;;;;5031662;28;20430;-54
2023/03/18 10:02:36;;;;;;;4.63;2.80;;;13.90;49.00;;;;;;5029301;28;20458;-54
2023/03/18 10:05:14;;;;;;;5.10;2.80;;;14.10;48.30;;;;;;5025600;28;20910;-54
2023/03/18 10:07:42;;;;;;;5.93;2.80;;;14.30;48.30;;;;;;5028868;28;20446;-55
2023/03/18 10:10:24;;;;;;;7.60;2.90;;;14.50;47.20;;;;;;5031091;28;20783;-54
2023/03/18 10:12:59;;;;;;;5.93;2.53;;;14.50;44.90;;;;;;5026843;28;20458;-55
2023/03/18 10:15:31;;;;;;;5.63;2.40;;;14.60;43.90;;;;;;5026804;28;20438;-54
2023/03/18 10:18:17;;;;;;;3.00;2.53;;;14.50;43.40;;;;;;5030408;28;20434;-55
2023/03/18 10:21:00;;;;;;;3.30;2.40;;;14.30;43.20;;;;;;5029329;28;20410;-57
2023/03/18 10:23:45;;;;;;;4.50;2.50;;;14.20;43.80;;;;;;5025260;28;20466;-53
2023/03/18 10:26:45;;;;;;;3.50;2.97;;;14.20;43.80;;;;;;5029319;28;20406;-54
2023/03/18 10:29:32;;;;;;;9.43;2.67;;;14.40;44.50;;;;;;5026425;28;21155;-55
2023/03/18 10:32:20;;;;;;;5.97;3.00;;;14.60;45.30;;;;;;5021015;28;20524;-53
2023/03/18 10:34:55;;;;;;;8.43;3.00;;;14.90;45.40;;;;;;5019233;28;20442;-56
2023/03/18 10:37:55;;;;;;;5.30;3.17;;;15.10;44.60;;;;;;5029076;28;20442;-54
2023/03/18 10:40:23;;;;;;;5.83;3.27;;;15.30;43.80;;;;;;5029387;28;20434;-56
2023/03/18 10:42:52;;;;;;;7.27;3.93;;;15.30;43.20;;;;;;5027973;28;20470;-55
2023/03/18 10:45:28;;;;;;;6.40;2.80;;;15.50;44.30;;;;;;5028383;28;20430;-56
2023/03/18 10:48:15;;;;;;;6.53;2.87;;;15.60;43.00;;;;;;5027449;28;20438;-56
2023/03/18 10:51:06;;;;;;;2.50;2.20;;;15.70;42.30;;;;;;5030677;28;20474;-57
2023/03/18 10:53:51;;;;;;;4.87;3.17;;;15.90;42.10;;;;;;5027244;28;20458;-55
2023/03/18 10:56:17;;;;;;;2.93;2.20;;;16.00;42.90;;;;;;5021412;28;20469;-56
2023/03/18 10:58:45;;;;;;;6.73;2.40;;;16.10;41.00;;;;;;5024573;28;20430;-56
2023/03/18 11:01:13;;;;;;;3.67;2.50;;;16.20;41.10;;;;;;5017942;28;20469;-53
2023/03/18 11:04:11;;;;;;;4.40;2.57;;;16.30;40.80;;;;;;5019970;28;20481;-57
2023/03/18 11:06:49;;;;;;;2.77;2.00;;;16.50;41.00;;;;;;5010833;28;21019;-53
2023/03/18 11:09:23;;;;;;;3.77;2.33;;;16.70;40.70;;;;;;5011405;28;20431;-62
2023/03/18 11:11:54;;;;;;;5.00;2.40;;;16.80;39.20;;;;;;5015821;28;21005;-57
2023/03/18 11:14:25;;;;;;;2.70;2.23;;;16.80;38.80;;;;;;5009672;28;20485;-52
2023/03/18 11:16:58;;;;;;;10.63;2.50;;;16.90;38.20;;;;;;5020052;28;20484;-57
2023/03/18 11:19:36;;;;;;;6.73;2.60;;;16.90;38.70;;;;;;5021090;28;20438;-55
2023/03/18 11:22:09;;;;;;;2.17;1.97;;;16.90;37.70;;;;;;5025250;28;20592;-55
2023/03/18 11:24:43;;;;;;;5.97;2.10;;;16.90;38.70;;;;;;5027546;28;20449;-53
2023/03/18 11:27:14;;;;;;;4.80;2.10;;;17.10;38.10;;;;;;5029208;28;20496;-53
2023/03/18 11:29:44;;;;;;;4.70;2.50;;;17.10;37.00;;;;;;5023560;28;21419;-53
2023/03/18 11:32:30;;;;;;;3.83;2.23;;;17.20;37.40;;;;;;5022740;28;20442;-54
2023/03/18 11:34:59;;;;;;;3.73;2.10;;;17.30;37.40;;;;;;5026096;28;20422;-54
2023/03/18 11:37:38;;;;;;;2.83;2.20;;;17.40;38.40;;;;;;5029069;28;20601;-54
2023/03/18 11:40:12;;;;;;;3.67;2.37;;;17.60;37.00;;;;;;5020411;28;20558;-55
2023/03/18 11:42:39;;;;;;;5.00;2.70;;;17.70;36.10;;;;;;5029180;28;20462;-53
2023/03/18 11:45:35;;;;;;;4.20;2.80;;;17.80;37.30;;;;;;5028858;28;20446;-52
2023/03/18 11:48:02;;;;;;;4.53;2.87;;;17.90;37.20;;;;;;5026067;28;20488;-54
2023/03/18 11:50:43;;;;;;;5.17;2.90;;;18.10;37.60;;;;;;5025592;28;20517;-54
2023/03/18 11:53:09;;;;;;;5.27;2.63;;;18.30;37.20;;;;;;5028853;28;20838;-53
2023/03/18 11:55:49;;;;;;;3.97;2.70;;;18.50;38.20;;;;;;5029463;28;20411;-53
2023/03/18 11:58:27;;;;;;;4.80;3.10;;;18.70;37.60;;;;;;5026281;28;20263;-55
2023/03/18 12:01:10;;;;;;;6.30;3.40;;;18.80;37.60;;;;;;5024933;28;20950;-55
2023/03/18 12:04:10;;;;;;;14.53;3.63;;;19.00;38.30;;;;;;5024468;28;20506;-53
2023/03/18 12:07:04;;;;;;;6.07;3.40;;;19.20;38.80;;;;;;5025889;28;20501;-54
2023/03/18 12:09:42;;;;;;;6.07;3.17;;;19.40;37.80;;;;;;5023440;28;21140;-54
2023/03/18 12:12:36;;;;;;;4.87;3.50;;;19.60;38.20;;;;;;5024153;28;21045;-53
2023/03/18 12:15:17;;;;;;;5.33;2.83;;;19.70;38.30;;;;;;5025256;28;20444;-55
2023/03/18 12:18:03;;;;;;;4.63;2.93;;;19.80;38.70;;;;;;5021789;28;20435;-54
2023/03/18 12:20:41;;;;;;;13.33;3.40;;;19.90;38.60;;;;;;5023040;28;20431;-54
2023/03/18 12:23:12;;;;;;;8.87;3.37;;;20.20;38.10;;;;;;5015531;28;20473;-54
2023/03/18 12:26:02;;;;;;;7.83;3.33;;;20.20;36.60;;;;;;5022501;28;20491;-54
2023/03/18 12:28:30;;;;;;;4.03;2.40;;;20.20;35.70;;;;;;5025129;28;20433;-57
2023/03/18 12:31:12;;;;;;;4.97;3.13;;;20.20;36.60;;;;;;5026582;28;20441;-54
2023/03/18 12:33:56;;;;;;;7.00;3.40;;;20.10;36.60;;;;;;5020724;28;20454;-53
2023/03/18 12:36:22;;;;;;;7.97;3.30;;;20.10;37.50;;;;;;5025814;28;20939;-55
2023/03/18 12:38:53;;;;;;;5.43;2.90;;;20.20;37.70;;;;;;5019936;28;20580;-54
2023/03/18 12:41:56;;;;;;;4.70;2.70;;;20.30;35.70;;;;;;5016668;28;20188;-54
2023/03/18 12:44:35;;;;;;;5.40;2.80;;;20.40;36.80;;;;;;5023291;28;20885;-56
2023/03/18 12:47:18;;;;;;;5.77;3.03;;;20.60;37.00;;;;;;5018183;28;21099;-54
2023/03/18 12:49:49;;;;;;;8.20;3.90;;;20.80;37.20;;;;;;5025245;28;20426;-56
2023/03/18 12:52:32;;;;;;;8.30;3.17;;;20.70;34.90;;;;;;5019297;28;20804;-55
2023/03/18 12:55:05;;;;;;;7.07;2.70;;;20.70;36.90;;;;;;5016958;28;20438;-56
2023/03/18 12:57:39;;;;;;;8.63;3.23;;;20.70;36.80;;;;;;5022430;28;20529;-56
2023/03/18 13:00:22;;;;;;;5.33;3.20;;;20.80;36.30;;;;;;5015465;28;20476;-56
2023/03/18 13:02:51;;;;;;;7.40;3.07;;;20.90;36.20;;;;;;5025146;28;20465;-54